Time;durP1;ratioP1;P1;durP2;ratioP2;P2;SDS_P1;SDS_P2;PMS_P1;PMS_P2;Temp;Humidity;BMP_temperature;BMP_pressure;BME280_temperature;BME280_humidity;BME280_pressure;Samples;Min_cycle;Max_cycle;Signal;HPM_P1;HPM_P2
2022/03/21 00:00:44;;;;;;;75.85;52.05;;;4.10;77.60;;;;;;5039459;28;25075;-71
2022/03/21 00:03:12;;;;;;;78.90;49.70;;;4.10;77.50;;;;;;5035121;28;25155;-72
2022/03/21 00:05:38;;;;;;;78.70;49.50;;;4.10;77.30;;;;;;5020897;28;25065;-71
2022/03/21 00:08:04;;;;;;;72.82;48.50;;;4.10;77.60;;;;;;5042415;28;25059;-73
2022/03/21 00:10:34;;;;;;;72.75;49.72;;;4.00;77.60;;;;;;5036725;28;25068;-72
2022/03/21 00:13:01;;;;;;;81.80;51.40;;;4.00;77.40;;;;;;5035648;28;25070;-73
2022/03/21 00:15:32;;;;;;;80.15;51.28;;;4.00;78.70;;;;;;5034578;28;25077;-72
2022/03/21 00:17:59;;;;;;;71.85;47.35;;;3.90;78.30;;;;;;5035070;28;25048;-73
2022/03/21 00:20:26;;;;;;;78.38;51.13;;;3.90;78.60;;;;;;5035086;28;25080;-72
2022/03/21 00:22:52;;;;;;;77.20;50.80;;;4.00;78.50;;;;;;5034220;28;25052;-71
2022/03/21 00:25:18;;;;;;;78.97;50.42;;;4.00;78.20;;;;;;5032704;28;25100;-71
2022/03/21 00:27:44;;;;;;;77.90;50.97;;;4.00;78.10;;;;;;5034049;28;25073;-71
2022/03/21 00:30:10;;;;;;;76.97;50.97;;;4.00;77.80;;;;;;5038246;28;25061;-71
2022/03/21 00:32:37;;;;;;;83.30;51.42;;;4.00;78.40;;;;;;5034854;28;25065;-71
2022/03/21 00:35:07;;;;;;;79.95;53.15;;;3.90;78.00;;;;;;5032628;28;25066;-72
2022/03/21 00:37:34;;;;;;;78.63;51.22;;;3.80;79.00;;;;;;5036875;28;25095;-72
2022/03/21 00:40:00;;;;;;;87.25;54.63;;;3.80;79.50;;;;;;5038780;28;25048;-70
2022/03/21 00:42:26;;;;;;;84.45;53.05;;;3.70;80.30;;;;;;5039748;28;25076;-72
2022/03/21 00:44:52;;;;;;;78.28;52.20;;;3.70;81.00;;;;;;5038719;28;25073;-73
2022/03/21 00:47:18;;;;;;;78.80;52.40;;;3.70;81.10;;;;;;5039377;28;25082;-71
2022/03/21 00:49:44;;;;;;;90.43;52.60;;;3.60;81.30;;;;;;5037805;28;25011;-73
2022/03/21 00:52:10;;;;;;;81.03;54.53;;;3.60;81.40;;;;;;5037973;28;25162;-71
2022/03/21 00:54:35;;;;;;;85.75;54.00;;;3.70;82.20;;;;;;5038787;28;25103;-72
2022/03/21 00:57:01;;;;;;;83.68;53.88;;;3.70;82.00;;;;;;5038661;28;25067;-72
2022/03/21 00:59:27;;;;;;;79.43;52.65;;;3.70;81.70;;;;;;5036927;28;25085;-70
2022/03/21 01:01:52;;;;;;;85.60;53.65;;;3.60;81.30;;;;;;5039291;28;25083;-72
2022/03/21 01:04:18;;;;;;;86.68;54.65;;;3.60;82.40;;;;;;5040458;28;25058;-72
2022/03/21 01:06:44;;;;;;;82.78;55.88;;;3.70;81.90;;;;;;5039839;28;25108;-71
2022/03/21 01:09:12;;;;;;;83.95;55.20;;;3.70;81.70;;;;;;5035983;28;25071;-71
2022/03/21 01:11:37;;;;;;;86.75;55.42;;;3.60;82.00;;;;;;5041888;28;25058;-72
2022/03/21 01:14:03;;;;;;;91.22;55.78;;;3.60;82.10;;;;;;5038134;28;25072;-72
2022/03/21 01:16:29;;;;;;;82.53;54.03;;;3.60;81.90;;;;;;5038561;28;25086;-73
2022/03/21 01:18:54;;;;;;;84.20;54.05;;;3.60;82.20;;;;;;5037327;28;25060;-72
2022/03/21 01:21:20;;;;;;;86.25;55.08;;;3.60;82.10;;;;;;5034918;28;25058;-73
2022/03/21 01:23:45;;;;;;;85.80;55.42;;;3.60;81.30;;;;;;5054145;28;25097;-71
2022/03/21 01:26:11;;;;;;;85.07;57.80;;;3.60;81.80;;;;;;5055176;28;25064;-72
2022/03/21 01:28:37;;;;;;;77.50;54.38;;;3.60;82.60;;;;;;5040019;28;25075;-74
2022/03/21 01:31:02;;;;;;;84.28;56.65;;;3.60;82.00;;;;;;5036863;28;25076;-72
2022/03/21 01:33:30;;;;;;;78.95;54.42;;;3.60;82.00;;;;;;5037089;28;25060;-72
2022/03/21 01:35:56;;;;;;;83.10;54.30;;;3.70;81.60;;;;;;5038443;28;25086;-71
2022/03/21 01:38:21;;;;;;;81.50;53.70;;;3.60;81.50;;;;;;5036034;28;24841;-72
2022/03/21 01:40:47;;;;;;;81.45;55.92;;;3.60;81.30;;;;;;5039877;28;25061;-72
2022/03/21 01:43:13;;;;;;;83.05;56.20;;;3.60;81.40;;;;;;5036428;28;25054;-71
2022/03/21 01:45:39;;;;;;;81.65;54.97;;;3.70;81.20;;;;;;5035575;28;25096;-74
2022/03/21 01:48:05;;;;;;;88.15;55.60;;;3.60;80.80;;;;;;5035230;28;25150;-72
2022/03/21 01:50:31;;;;;;;90.95;56.70;;;3.50;81.10;;;;;;5036478;28;25058;-74
2022/03/21 01:55:43;;;;;;;87.47;57.00;;;3.40;82.10;;;;;;5036865;28;25062;-72
2022/03/21 01:58:11;;;;;;;84.93;56.00;;;3.40;82.00;;;;;;5051937;28;25054;-73
2022/03/21 02:00:37;;;;;;;82.80;54.55;;;3.40;81.80;;;;;;5037670;28;25055;-73
2022/03/21 02:03:03;;;;;;;83.63;55.60;;;3.40;82.40;;;;;;5025285;28;25054;-72
2022/03/21 02:05:29;;;;;;;87.22;56.50;;;3.40;82.60;;;;;;5028299;28;25132;-73
2022/03/21 02:07:54;;;;;;;87.40;56.72;;;3.40;82.20;;;;;;5027837;28;25297;-72
2022/03/21 02:10:20;;;;;;;83.40;55.92;;;3.30;82.50;;;;;;5030548;28;25147;-73
2022/03/21 02:12:46;;;;;;;84.95;56.58;;;3.30;83.40;;;;;;5028610;28;25070;-70
2022/03/21 02:15:12;;;;;;;85.40;56.97;;;3.30;83.20;;;;;;5034275;28;25055;-74
2022/03/21 02:17:41;;;;;;;86.15;55.70;;;3.40;83.60;;;;;;5042994;28;25102;-74
2022/03/21 02:20:07;;;;;;;86.45;56.63;;;3.30;83.60;;;;;;5033875;28;25060;-72
2022/03/21 02:22:53;;;;;;;88.90;58.35;;;3.30;84.20;;;;;;5028058;28;25110;-72
2022/03/21 02:25:31;;;;;;;86.82;56.97;;;3.30;84.40;;;;;;5027345;28;25123;-71
2022/03/21 02:28:03;;;;;;;93.63;59.67;;;3.20;84.70;;;;;;5028891;28;25063;-71
2022/03/21 02:30:30;;;;;;;90.15;57.90;;;3.30;84.70;;;;;;5043734;28;25159;-71
2022/03/21 02:32:56;;;;;;;89.75;57.75;;;3.30;84.50;;;;;;5026929;28;25050;-70
2022/03/21 02:35:24;;;;;;;95.63;58.55;;;3.20;84.30;;;;;;5030576;28;25052;-71
2022/03/21 02:37:52;;;;;;;86.72;57.10;;;3.20;85.20;;;;;;5029037;28;25150;-72
2022/03/21 02:40:17;;;;;;;95.70;57.10;;;3.20;85.30;;;;;;5030032;28;25062;-73
2022/03/21 02:42:43;;;;;;;94.72;59.13;;;3.20;85.50;;;;;;5029405;28;25126;-73
2022/03/21 02:45:09;;;;;;;87.25;57.00;;;3.10;85.30;;;;;;5028982;28;25144;-74
2022/03/21 02:47:35;;;;;;;90.78;59.72;;;3.20;85.90;;;;;;5029728;28;25105;-72
2022/03/21 02:50:02;;;;;;;97.35;57.97;;;3.20;85.50;;;;;;5029619;28;25070;-72
2022/03/21 02:52:29;;;;;;;85.57;57.88;;;3.20;85.00;;;;;;5034960;28;25087;-73
2022/03/21 02:54:55;;;;;;;90.47;57.60;;;3.10;84.50;;;;;;5034986;28;25065;-72
2022/03/21 02:57:21;;;;;;;93.03;58.67;;;3.10;84.30;;;;;;5034667;28;25078;-72
2022/03/21 02:59:47;;;;;;;94.63;59.15;;;3.10;84.80;;;;;;5037294;28;25064;-72
2022/03/21 03:02:12;;;;;;;94.18;58.45;;;3.10;84.40;;;;;;5038849;28;25070;-73
2022/03/21 03:04:39;;;;;;;92.25;58.90;;;3.00;84.90;;;;;;5034836;28;25073;-73
2022/03/21 03:07:04;;;;;;;102.13;61.60;;;3.10;84.30;;;;;;5035913;28;25057;-71
2022/03/21 03:09:30;;;;;;;91.50;59.38;;;3.00;84.20;;;;;;5035958;28;25052;-72
2022/03/21 03:11:55;;;;;;;94.75;57.75;;;3.00;83.80;;;;;;5034833;28;25082;-71
2022/03/21 03:14:21;;;;;;;89.97;57.60;;;2.90;84.30;;;;;;5036819;28;25070;-74
2022/03/21 03:16:47;;;;;;;97.72;61.80;;;2.90;84.60;;;;;;5037395;28;25102;-72
2022/03/21 03:19:12;;;;;;;94.22;59.78;;;2.90;84.50;;;;;;5035155;28;25086;-73
2022/03/21 03:21:43;;;;;;;94.47;59.50;;;2.90;84.60;;;;;;5035615;28;25041;-71
2022/03/21 03:24:10;;;;;;;95.00;59.80;;;2.80;85.10;;;;;;5037886;28;25081;-72
2022/03/21 03:26:36;;;;;;;97.57;60.30;;;2.80;85.30;;;;;;5036303;28;25067;-73
2022/03/21 03:29:02;;;;;;;101.75;62.20;;;2.80;85.90;;;;;;5040628;28;25076;-73
2022/03/21 03:31:28;;;;;;;93.22;61.03;;;2.80;86.10;;;;;;5044664;28;25073;-73
2022/03/21 03:33:54;;;;;;;101.28;61.60;;;2.80;85.90;;;;;;5032603;28;25099;-72
2022/03/21 03:36:21;;;;;;;96.15;61.30;;;2.90;85.90;;;;;;5036990;28;25062;-72
2022/03/21 03:38:48;;;;;;;98.68;62.33;;;2.90;85.30;;;;;;5035592;28;25046;-74
2022/03/21 03:41:15;;;;;;;95.68;59.85;;;2.90;84.90;;;;;;5033471;28;25070;-71
2022/03/21 03:43:43;;;;;;;92.75;58.28;;;3.00;84.50;;;;;;5035781;28;25073;-72
2022/03/21 03:46:08;;;;;;;101.07;62.60;;;2.90;84.00;;;;;;5036152;28;25061;-73
2022/03/21 03:48:34;;;;;;;98.40;60.72;;;2.90;83.90;;;;;;5033336;28;25069;-73
2022/03/21 03:51:00;;;;;;;93.53;59.30;;;2.90;83.70;;;;;;5035200;28;25085;-72
2022/03/21 03:53:26;;;;;;;90.35;59.28;;;2.90;83.70;;;;;;5034939;28;25075;-73
2022/03/21 03:55:51;;;;;;;96.78;62.20;;;3.00;83.40;;;;;;5032865;28;25061;-72
2022/03/21 03:58:17;;;;;;;90.80;57.80;;;3.00;82.90;;;;;;5033295;28;25091;-73
2022/03/21 04:00:44;;;;;;;88.95;59.75;;;3.10;82.50;;;;;;5033935;28;25108;-71
2022/03/21 04:05:54;;;;;;;91.43;57.72;;;3.10;81.50;;;;;;5033914;28;25073;-71
2022/03/21 04:08:20;;;;;;;88.65;56.47;;;3.10;81.20;;;;;;5033087;28;25124;-73
2022/03/21 04:10:45;;;;;;;87.72;57.65;;;3.10;81.70;;;;;;5033272;28;25055;-73
2022/03/21 04:13:11;;;;;;;89.93;58.33;;;3.10;80.80;;;;;;5034148;28;25172;-71
2022/03/21 04:15:37;;;;;;;94.32;59.50;;;3.10;80.80;;;;;;5027720;28;25153;-70
2022/03/21 04:18:04;;;;;;;93.47;60.15;;;3.00;81.00;;;;;;5027454;28;25115;-71
2022/03/21 04:20:31;;;;;;;93.97;57.50;;;3.10;81.20;;;;;;5027502;28;25070;-71
2022/03/21 04:23:00;;;;;;;89.63;58.70;;;3.10;81.20;;;;;;5027579;28;25062;-73
2022/03/21 04:25:26;;;;;;;97.65;60.22;;;3.10;80.90;;;;;;5029012;28;25141;-72
2022/03/21 04:27:52;;;;;;;86.57;56.78;;;3.00;81.00;;;;;;5034216;28;25070;-73
2022/03/21 04:30:18;;;;;;;89.30;58.50;;;3.10;81.00;;;;;;5046422;28;25059;-73
2022/03/21 04:32:44;;;;;;;86.22;57.10;;;3.10;81.00;;;;;;5029860;28;25053;-72
2022/03/21 04:35:10;;;;;;;87.53;55.97;;;3.10;81.00;;;;;;5027307;28;25115;-72
2022/03/21 04:37:37;;;;;;;94.68;58.63;;;3.10;80.90;;;;;;5026856;28;25074;-71
2022/03/21 04:40:03;;;;;;;90.20;57.85;;;3.20;80.30;;;;;;5026688;28;25092;-71
2022/03/21 04:42:29;;;;;;;93.15;59.10;;;3.20;80.20;;;;;;5027170;28;25060;-71
2022/03/21 04:44:54;;;;;;;94.15;57.90;;;3.20;80.20;;;;;;5027915;28;25105;-71
2022/03/21 04:47:21;;;;;;;88.53;58.17;;;3.20;79.90;;;;;;5028575;28;25086;-72
2022/03/21 04:49:47;;;;;;;95.60;58.35;;;3.20;79.90;;;;;;5035413;28;25106;-72
2022/03/21 04:52:12;;;;;;;94.75;57.85;;;3.20;80.40;;;;;;5050397;28;25070;-74
2022/03/21 04:54:39;;;;;;;91.75;57.20;;;3.20;80.20;;;;;;5054223;28;25074;-74
2022/03/21 04:57:06;;;;;;;86.57;56.28;;;3.20;80.00;;;;;;5055596;28;25061;-73
2022/03/21 04:59:33;;;;;;;84.03;55.80;;;3.20;80.20;;;;;;5052996;28;25055;-73
2022/03/21 05:01:59;;;;;;;91.13;57.58;;;3.20;80.20;;;;;;5051947;28;25066;-71
2022/03/21 05:04:25;;;;;;;88.82;57.55;;;3.20;80.40;;;;;;5043002;28;25120;-74
2022/03/21 05:06:51;;;;;;;92.32;57.45;;;3.20;80.00;;;;;;5039947;28;25058;-73
2022/03/21 05:09:17;;;;;;;94.78;59.13;;;3.20;80.10;;;;;;5033390;28;25050;-73
2022/03/21 05:11:42;;;;;;;91.20;57.17;;;3.20;80.60;;;;;;5028485;28;25055;-72
2022/03/21 05:14:08;;;;;;;91.78;58.70;;;3.20;80.20;;;;;;5025773;28;25069;-71
2022/03/21 05:16:34;;;;;;;92.72;59.90;;;3.20;79.60;;;;;;5020861;28;25064;-72
2022/03/21 05:19:00;;;;;;;93.40;58.72;;;3.20;79.40;;;;;;5026339;28;25057;-72
2022/03/21 05:21:25;;;;;;;91.85;59.25;;;3.20;79.30;;;;;;5017314;28;25157;-73
2022/03/21 05:32:03;;;;;;;95.30;62.25;;;3.00;79.80;;;;;;5016215;28;25065;-73
2022/03/21 05:37:13;;;;;;;89.68;58.13;;;3.00;80.50;;;;;;5016715;28;25067;-73
2022/03/21 05:40:31;;;;;;;96.03;61.58;;;3.00;80.60;;;;;;5023597;28;25056;-72
2022/03/21 05:42:25;;;;;;;102.18;62.97;;;2.90;81.40;;;;;;5031664;28;25067;-73
2022/03/21 05:44:50;;;;;;;96.65;62.92;;;2.80;82.20;;;;;;5032890;28;25073;-70
2022/03/21 05:47:16;;;;;;;102.85;62.88;;;2.80;83.00;;;;;;5035555;28;25057;-72
2022/03/21 05:49:41;;;;;;;102.03;62.97;;;2.80;83.80;;;;;;5035939;28;25061;-75
2022/03/21 05:52:07;;;;;;;99.53;63.15;;;2.80;83.90;;;;;;5032708;28;25088;-72
2022/03/21 05:54:32;;;;;;;104.45;66.20;;;2.70;84.50;;;;;;5024265;28;25052;-73
2022/03/21 05:56:58;;;;;;;104.28;64.60;;;2.80;84.80;;;;;;5025572;28;25076;-74
2022/03/21 06:02:08;;;;;;;100.70;66.35;;;2.90;84.30;;;;;;5027501;28;25078;-74
2022/03/21 06:04:33;;;;;;;102.43;65.00;;;2.90;84.40;;;;;;5024612;28;25154;-73
2022/03/21 06:06:59;;;;;;;104.93;68.95;;;2.90;83.90;;;;;;5025209;28;25052;-76
2022/03/21 06:09:24;;;;;;;103.28;65.55;;;2.70;83.90;;;;;;5024909;28;25060;-74
2022/03/21 06:11:50;;;;;;;100.40;62.85;;;2.70;84.50;;;;;;5026714;28;25087;-74
2022/03/21 06:14:18;;;;;;;102.53;66.65;;;2.80;84.60;;;;;;5029468;28;25142;-74
2022/03/21 06:16:44;;;;;;;101.18;65.32;;;2.70;84.60;;;;;;5016334;28;25084;-78
2022/03/21 06:19:10;;;;;;;108.13;68.03;;;2.70;85.20;;;;;;5032572;28;25136;-74
2022/03/21 06:21:35;;;;;;;103.60;67.18;;;2.70;86.00;;;;;;5029997;28;25068;-75
2022/03/21 06:24:01;;;;;;;109.22;67.07;;;2.80;86.20;;;;;;5021063;28;25065;-75
2022/03/21 06:26:26;;;;;;;104.32;66.13;;;2.90;86.30;;;;;;5023738;28;25144;-74
2022/03/21 06:28:52;;;;;;;108.85;66.63;;;2.90;86.60;;;;;;5021596;28;25063;-75
2022/03/21 06:31:17;;;;;;;103.38;67.75;;;3.00;86.40;;;;;;5022776;28;25074;-75
2022/03/21 06:33:43;;;;;;;106.25;65.45;;;3.00;86.10;;;;;;5030002;28;25107;-75
2022/03/21 06:36:09;;;;;;;105.80;66.15;;;3.10;86.40;;;;;;5026842;28;25164;-76
2022/03/21 06:38:35;;;;;;;100.85;65.65;;;3.10;86.60;;;;;;5024211;28;25125;-73
2022/03/21 06:41:01;;;;;;;98.85;64.05;;;3.10;86.40;;;;;;5029916;28;25073;-74
2022/03/21 06:43:27;;;;;;;107.72;68.45;;;3.10;86.10;;;;;;5053946;28;25053;-75
2022/03/21 06:45:56;;;;;;;107.55;68.53;;;3.10;86.40;;;;;;5035377;28;25137;-73
2022/03/21 06:48:23;;;;;;;104.60;66.35;;;3.20;86.80;;;;;;5031618;28;25062;-73
2022/03/21 06:50:51;;;;;;;103.65;66.82;;;3.20;86.70;;;;;;5033490;28;25069;-74
2022/03/21 06:53:18;;;;;;;109.03;67.10;;;3.30;87.20;;;;;;5030743;28;25131;-74
2022/03/21 06:55:44;;;;;;;107.93;69.38;;;3.40;86.90;;;;;;5030916;28;25146;-74
2022/03/21 06:58:14;;;;;;;109.63;67.22;;;3.40;87.30;;;;;;5032467;28;25057;-74
2022/03/21 07:00:44;;;;;;;107.20;66.97;;;3.40;87.60;;;;;;5030190;28;25155;-74
2022/03/21 07:03:10;;;;;;;107.90;65.65;;;3.50;88.50;;;;;;5027251;28;25076;-74
2022/03/21 07:05:36;;;;;;;108.28;65.95;;;3.70;88.60;;;;;;5030015;28;25085;-72
2022/03/21 07:08:03;;;;;;;99.47;64.07;;;3.90;88.10;;;;;;5031672;28;25134;-74
2022/03/21 07:10:29;;;;;;;100.85;62.95;;;3.90;87.00;;;;;;5030653;28;25161;-75
2022/03/21 07:12:54;;;;;;;94.63;62.65;;;4.00;86.10;;;;;;5023204;28;25072;-75
2022/03/21 07:15:20;;;;;;;99.13;64.78;;;4.00;86.20;;;;;;5041563;28;25145;-73
2022/03/21 07:17:45;;;;;;;98.80;61.97;;;4.10;85.60;;;;;;5026350;28;25145;-73
2022/03/21 07:20:12;;;;;;;93.07;60.88;;;4.30;85.30;;;;;;5027447;28;25057;-73
2022/03/21 07:22:39;;;;;;;97.10;65.15;;;4.40;84.00;;;;;;5030216;28;25060;-74
2022/03/21 07:25:06;;;;;;;91.78;61.15;;;4.40;82.90;;;;;;5031964;28;26180;-74
2022/03/21 07:27:32;;;;;;;96.57;61.70;;;4.40;82.50;;;;;;5018196;28;25131;-72
2022/03/21 07:29:58;;;;;;;93.57;60.72;;;4.50;82.60;;;;;;5040328;28;25054;-74
2022/03/21 07:32:23;;;;;;;99.20;62.03;;;4.60;82.60;;;;;;5040005;28;25114;-74
2022/03/21 07:34:49;;;;;;;89.80;59.08;;;4.70;82.10;;;;;;5028947;28;25054;-73
2022/03/21 07:37:14;;;;;;;84.93;58.22;;;4.80;81.80;;;;;;5028999;28;25156;-74
2022/03/21 07:39:44;;;;;;;96.93;60.28;;;4.90;80.50;;;;;;5029544;28;25092;-73
2022/03/21 07:42:14;;;;;;;84.75;59.40;;;5.00;79.70;;;;;;5028833;28;25107;-73
2022/03/21 07:47:23;;;;;;;88.95;57.63;;;5.10;79.30;;;;;;5029294;28;25175;-75
2022/03/21 07:49:51;;;;;;;89.47;59.97;;;5.30;78.50;;;;;;5028779;28;25090;-73
2022/03/21 07:52:18;;;;;;;82.97;55.88;;;5.30;78.30;;;;;;5024359;28;25101;-73
2022/03/21 07:54:45;;;;;;;80.78;54.97;;;5.40;77.80;;;;;;5029992;28;25057;-74
2022/03/21 07:57:10;;;;;;;84.60;55.50;;;5.50;77.20;;;;;;5030068;28;25071;-76
2022/03/21 07:59:36;;;;;;;81.93;52.20;;;5.70;76.40;;;;;;5029696;28;25055;-73
2022/03/21 08:02:03;;;;;;;79.65;52.05;;;5.80;75.80;;;;;;5029507;28;25179;-76
2022/03/21 08:04:31;;;;;;;72.80;50.75;;;6.00;74.20;;;;;;5028331;28;25127;-76
2022/03/21 08:06:58;;;;;;;66.63;46.17;;;6.10;73.80;;;;;;5029243;28;25057;-72
2022/03/21 08:09:30;;;;;;;74.55;49.45;;;6.30;72.60;;;;;;5029157;28;25067;-74
2022/03/21 08:11:57;;;;;;;72.05;48.17;;;6.50;71.50;;;;;;5029219;28;25060;-75
2022/03/21 08:14:23;;;;;;;69.40;47.53;;;6.60;70.10;;;;;;5029405;28;25098;-73
2022/03/21 08:16:48;;;;;;;65.28;45.42;;;6.70;69.20;;;;;;5029901;28;25066;-71
2022/03/21 08:19:15;;;;;;;67.70;45.70;;;6.90;69.20;;;;;;5029366;28;25078;-74
2022/03/21 08:21:41;;;;;;;65.10;42.90;;;7.10;68.10;;;;;;5030931;28;25134;-74
2022/03/21 08:24:06;;;;;;;62.05;42.78;;;7.30;67.40;;;;;;5027236;28;25048;-73
2022/03/21 08:26:35;;;;;;;60.40;42.53;;;7.40;66.90;;;;;;5024708;28;25072;-72
2022/03/21 08:29:01;;;;;;;63.40;40.47;;;7.60;66.40;;;;;;5026379;28;25056;-74
2022/03/21 08:31:26;;;;;;;58.00;39.13;;;7.80;65.60;;;;;;5024474;28;25159;-74
2022/03/21 08:33:52;;;;;;;54.67;37.25;;;8.00;64.40;;;;;;5019315;28;25111;-76
2022/03/21 08:36:18;;;;;;;55.58;37.58;;;8.20;64.30;;;;;;5022979;28;25132;-74
2022/03/21 08:38:43;;;;;;;58.28;37.83;;;8.40;62.50;;;;;;5029973;28;25141;-74
2022/03/21 08:41:09;;;;;;;52.95;35.90;;;9.00;63.30;;;;;;5022907;28;25096;-75
2022/03/21 08:43:34;;;;;;;54.53;35.97;;;9.40;60.10;;;;;;5027147;28;25127;-75
2022/03/21 08:46:00;;;;;;;48.83;32.05;;;9.60;56.10;;;;;;5017559;28;25076;-74
2022/03/21 08:49:23;;;;;;;43.53;30.83;;;9.90;53.00;;;;;;5021376;28;25132;-76
2022/03/21 08:51:12;;;;;;;40.78;28.60;;;10.20;53.90;;;;;;5018608;28;25046;-73
2022/03/21 08:53:38;;;;;;;37.88;28.35;;;10.70;51.90;;;;;;5033001;28;25101;-74
2022/03/21 08:56:04;;;;;;;38.90;26.30;;;11.10;49.60;;;;;;5037578;28;25098;-76
2022/03/21 08:58:30;;;;;;;39.20;26.30;;;10.90;42.80;;;;;;5040794;28;25082;-75
2022/03/21 09:00:56;;;;;;;35.15;24.92;;;11.10;44.20;;;;;;5024718;28;25089;-74
2022/03/21 09:03:21;;;;;;;40.25;25.25;;;11.30;44.30;;;;;;5026215;28;25060;-75
2022/03/21 09:05:47;;;;;;;38.20;24.70;;;11.70;44.50;;;;;;5020378;28;25109;-75
2022/03/21 09:08:12;;;;;;;35.00;25.05;;;11.90;39.30;;;;;;5021561;28;25151;-72
2022/03/21 09:10:38;;;;;;;36.05;24.33;;;11.80;40.00;;;;;;5021611;28;25056;-74
2022/03/21 09:13:05;;;;;;;37.20;23.67;;;12.00;41.80;;;;;;5024344;28;25075;-73
2022/03/21 09:15:31;;;;;;;33.33;22.27;;;12.30;37.90;;;;;;5047549;28;25058;-73
2022/03/21 09:17:57;;;;;;;33.88;21.80;;;12.10;33.90;;;;;;5045894;28;25159;-73
2022/03/21 09:20:23;;;;;;;35.25;21.10;;;12.30;31.60;;;;;;5048420;28;25076;-73
2022/03/21 09:22:48;;;;;;;31.40;21.52;;;12.50;31.50;;;;;;5046581;28;25059;-74
2022/03/21 09:25:17;;;;;;;28.33;19.70;;;12.10;27.40;;;;;;5048523;28;25069;-75
2022/03/21 09:27:42;;;;;;;30.60;19.98;;;12.30;28.30;;;;;;5048659;28;25130;-74
2022/03/21 09:30:09;;;;;;;30.48;19.58;;;12.60;28.10;;;;;;5034179;28;25080;-75
2022/03/21 09:32:35;;;;;;;27.75;20.13;;;12.90;24.20;;;;;;5038642;28;25054;-74
2022/03/21 09:35:01;;;;;;;31.90;20.42;;;13.30;24.70;;;;;;5028519;28;25070;-75
2022/03/21 09:37:26;;;;;;;31.90;20.10;;;13.50;25.40;;;;;;5029845;28;25079;-77
2022/03/21 09:39:52;;;;;;;34.95;19.27;;;13.90;23.80;;;;;;5029277;28;25051;-74
2022/03/21 09:42:17;;;;;;;29.63;20.15;;;14.10;22.10;;;;;;5027073;28;25058;-75
2022/03/21 09:44:43;;;;;;;29.73;20.20;;;14.20;19.20;;;;;;5023036;28;25111;-73
2022/03/21 09:49:58;;;;;;;29.40;19.60;;;13.60;17.40;;;;;;5018648;28;25084;-74
2022/03/21 09:52:24;;;;;;;25.73;19.63;;;13.80;17.70;;;;;;5025190;28;25096;-75
2022/03/21 09:54:51;;;;;;;27.35;20.35;;;14.20;15.20;;;;;;5022006;28;25069;-73
2022/03/21 09:57:18;;;;;;;27.65;20.45;;;14.20;17.40;;;;;;5031077;28;25070;-76
2022/03/21 09:59:44;;;;;;;31.55;21.45;;;14.30;18.00;;;;;;5048289;28;25058;-75
2022/03/21 10:02:16;;;;;;;32.30;21.42;;;14.30;16.20;;;;;;5046352;28;25126;-72
2022/03/21 10:04:43;;;;;;;32.83;21.02;;;13.60;16.80;;;;;;5029165;28;25135;-75
2022/03/21 10:07:11;;;;;;;29.35;21.25;;;12.90;15.40;;;;;;5052051;28;25072;-74
2022/03/21 10:09:36;;;;;;;30.42;20.95;;;12.70;19.80;;;;;;5051959;28;25055;-74
2022/03/21 10:12:08;;;;;;;35.47;20.23;;;13.00;18.80;;;;;;5051520;28;25071;-72
2022/03/21 10:14:36;;;;;;;31.63;21.45;;;13.10;16.50;;;;;;5029210;28;25081;-73
2022/03/21 10:17:07;;;;;;;31.85;20.20;;;13.10;15.60;;;;;;5033843;28;25075;-74
2022/03/21 10:19:51;;;;;;;29.80;20.75;;;13.20;16.20;;;;;;5024988;28;25064;-74
2022/03/21 10:22:21;;;;;;;29.98;20.52;;;13.20;18.50;;;;;;5017853;28;25077;-73
2022/03/21 10:24:51;;;;;;;33.63;20.27;;;13.30;16.90;;;;;;5023263;28;25084;-74
2022/03/21 10:27:32;;;;;;;30.40;19.45;;;13.30;17.60;;;;;;5044248;28;25066;-73
2022/03/21 10:30:00;;;;;;;30.75;19.83;;;13.10;16.20;;;;;;5043160;28;25058;-72
2022/03/21 10:32:34;;;;;;;26.00;17.88;;;13.00;15.80;;;;;;5034445;28;25070;-74
2022/03/21 10:35:01;;;;;;;27.30;18.23;;;13.50;15.30;;;;;;5031669;28;25081;-72
2022/03/21 10:37:40;;;;;;;24.23;18.38;;;13.70;13.00;;;;;;5031241;28;25055;-72
2022/03/21 10:40:19;;;;;;;27.48;18.45;;;13.60;10.90;;;;;;5032684;28;25063;-74
2022/03/21 10:42:52;;;;;;;31.85;19.67;;;13.40;13.70;;;;;;5031393;28;25066;-75
2022/03/21 10:45:17;;;;;;;27.63;19.83;;;13.60;13.80;;;;;;5027214;28;25054;-74
2022/03/21 10:47:51;;;;;;;31.23;19.42;;;13.70;11.10;;;;;;5029508;28;25056;-73
2022/03/21 10:50:33;;;;;;;29.77;21.40;;;14.10;10.40;;;;;;5036324;28;25059;-73
2022/03/21 10:53:29;;;;;;;28.52;18.23;;;14.00;13.50;;;;;;5024314;28;25160;-74
2022/03/21 10:55:57;;;;;;;27.45;17.35;;;14.30;9.40;;;;;;5031484;28;25060;-73
2022/03/21 10:58:36;;;;;;;25.42;18.10;;;14.80;8.40;;;;;;5031175;28;25135;-74
2022/03/21 11:01:16;;;;;;;30.45;19.63;;;15.30;9.50;;;;;;5030946;28;25153;-73
2022/03/21 11:03:44;;;;;;;27.60;19.27;;;14.90;9.10;;;;;;5030429;28;25135;-73
2022/03/21 11:06:12;;;;;;;27.27;18.58;;;14.70;9.80;;;;;;5031270;28;25070;-74
2022/03/21 11:08:38;;;;;;;26.15;18.67;;;14.40;8.50;;;;;;5032163;28;25096;-73
2022/03/21 11:11:05;;;;;;;26.80;18.02;;;14.40;10.30;;;;;;5032614;28;25167;-73
2022/03/21 11:13:31;;;;;;;28.00;18.73;;;15.00;8.80;;;;;;5029712;28;25151;-73
2022/03/21 11:15:58;;;;;;;28.83;18.63;;;15.10;6.80;;;;;;5048973;28;25055;-73
2022/03/21 11:18:26;;;;;;;26.80;17.95;;;14.80;6.90;;;;;;5049028;28;25086;-72
2022/03/21 11:20:52;;;;;;;27.80;18.92;;;14.90;7.20;;;;;;5039533;28;25100;-72
2022/03/21 11:23:19;;;;;;;26.08;17.75;;;15.50;6.50;;;;;;5033534;28;25117;-73
2022/03/21 11:26:33;;;;;;;28.95;18.05;;;15.70;7.10;;;;;;5033226;28;25057;-75
2022/03/21 11:29:18;;;;;;;22.90;17.02;;;16.50;6.50;;;;;;5039213;28;25085;-75
2022/03/21 11:31:59;;;;;;;25.30;17.55;;;16.90;3.40;;;;;;5047121;28;25097;-74
2022/03/21 11:34:43;;;;;;;28.08;18.20;;;17.00;2.40;;;;;;5042260;28;25060;-72
2022/03/21 11:37:27;;;;;;;26.45;17.80;;;16.00;2.30;;;;;;5040897;28;25117;-74
2022/03/21 11:40:22;;;;;;;32.75;16.83;;;15.70;3.50;;;;;;5034634;28;25090;-72
2022/03/21 11:42:48;;;;;;;24.00;16.48;;;15.40;5.30;;;;;;5015018;28;25130;-73
2022/03/21 11:45:26;;;;;;;28.05;19.13;;;15.90;5.00;;;;;;5016546;28;25058;-74
2022/03/21 11:48:17;;;;;;;29.00;18.02;;;16.30;4.00;;;;;;5020091;28;25065;-73
2022/03/21 11:50:46;;;;;;;28.10;17.42;;;16.40;3.20;;;;;;5017502;28;25080;-72
2022/03/21 11:53:13;;;;;;;28.23;16.23;;;16.70;3.20;;;;;;5013990;28;25126;-73
2022/03/21 11:55:41;;;;;;;24.45;16.58;;;16.90;3.40;;;;;;5014639;28;25108;-74
2022/03/21 11:58:21;;;;;;;24.02;16.83;;;17.20;1.30;;;;;;5012467;28;25055;-72
2022/03/21 12:01:20;;;;;;;22.65;16.30;;;17.50;1.00;;;;;;5015866;28;25147;-72
2022/03/21 12:03:46;;;;;;;29.45;16.65;;;18.00;1.00;;;;;;5018988;28;25136;-75
2022/03/21 12:06:24;;;;;;;29.08;16.67;;;17.70;1.00;;;;;;5011038;28;25048;-73
2022/03/21 12:09:01;;;;;;;25.27;16.25;;;17.60;1.00;;;;;;5030257;28;25109;-74
2022/03/21 12:11:39;;;;;;;24.88;16.00;;;17.90;1.00;;;;;;5046044;28;25123;-75
2022/03/21 12:14:27;;;;;;;27.20;15.60;;;18.30;1.00;;;;;;5046283;28;25062;-72
2022/03/21 12:17:01;;;;;;;29.60;16.20;;;18.30;1.00;;;;;;5048028;28;25050;-74
2022/03/21 12:19:48;;;;;;;25.25;15.68;;;18.20;1.00;;;;;;5046623;28;25110;-73
2022/03/21 12:22:28;;;;;;;27.88;16.75;;;17.60;1.00;;;;;;5046909;28;25074;-74
2022/03/21 12:25:20;;;;;;;27.27;14.98;;;18.10;1.00;;;;;;5046764;28;25053;-75
2022/03/21 12:27:57;;;;;;;24.83;16.40;;;18.20;1.00;;;;;;5045502;28;25063;-73
2022/03/21 12:30:32;;;;;;;28.00;17.20;;;18.50;1.00;;;;;;5021553;28;25063;-72
2022/03/21 12:33:02;;;;;;;28.13;16.80;;;18.70;1.00;;;;;;5020750;28;25062;-73
2022/03/21 12:35:45;;;;;;;24.42;16.42;;;19.10;1.00;;;;;;5026191;28;25132;-72
2022/03/21 12:38:23;;;;;;;24.80;17.90;;;18.90;1.00;;;;;;5026857;28;25071;-74
2022/03/21 12:41:00;;;;;;;27.55;17.23;;;18.70;1.00;;;;;;5026938;28;25045;-75
2022/03/21 12:43:28;;;;;;;25.23;16.38;;;18.70;1.00;;;;;;5027318;28;25099;-72
2022/03/21 12:45:58;;;;;;;30.42;17.90;;;18.40;1.00;;;;;;5027062;28;25102;-73
2022/03/21 12:48:29;;;;;;;25.10;17.25;;;18.90;1.00;;;;;;5014411;28;25070;-75
2022/03/21 12:50:54;;;;;;;29.58;17.00;;;19.20;1.00;;;;;;5038975;28;25041;-71
2022/03/21 12:53:21;;;;;;;26.77;17.58;;;17.90;1.00;;;;;;5052748;28;25062;-73
2022/03/21 12:56:03;;;;;;;28.05;16.55;;;17.30;1.00;;;;;;5062138;28;25080;-74
2022/03/21 12:58:29;;;;;;;24.52;16.55;;;17.50;1.00;;;;;;5040992;28;25080;-74
2022/03/21 13:00:57;;;;;;;26.77;17.98;;;18.10;1.00;;;;;;5054270;28;25054;-75
2022/03/21 13:03:24;;;;;;;29.20;16.80;;;18.20;1.00;;;;;;5040993;28;25084;-75